createdAt,value
2018-11-07T00:00:22.432Z,100776.47
2018-11-07T00:02:50.894Z,100773.42
2018-11-07T00:05:20.218Z,100775.59
2018-11-07T00:07:48.717Z,100779.13
2018-11-07T00:10:17.156Z,100783.52
2018-11-07T00:12:45.616Z,100771.94
2018-11-07T00:15:15.141Z,100773.82
2018-11-07T00:17:43.693Z,100772.47
2018-11-07T00:20:12.778Z,100773.45
2018-11-07T00:22:41.221Z,100777.37
2018-11-07T00:25:10.989Z,100779.56
2018-11-07T00:27:39.587Z,100789.36
2018-11-07T00:30:09.179Z,100789.22
2018-11-07T00:32:37.840Z,100786.84
2018-11-07T00:35:07.226Z,100785.52
2018-11-07T00:37:35.633Z,100781.24
2018-11-07T00:40:04.058Z,100779.77
2018-11-07T00:42:32.492Z,100783.41
2018-11-07T00:45:00.920Z,100784.35
2018-11-07T00:47:29.677Z,100790.38
2018-11-07T00:49:58.141Z,100788.52
2018-11-07T00:52:26.612Z,100782.64
2018-11-07T00:54:55.043Z,100774.27
2018-11-07T00:57:23.516Z,100777.36
2018-11-07T00:59:51.942Z,100778.77
2018-11-07T01:02:20.420Z,100787.48
2018-11-07T01:04:48.834Z,100802.02
2018-11-07T01:07:17.246Z,100800.86
2018-11-07T01:09:45.693Z,100786.72
2018-11-07T01:12:14.129Z,100772.94
2018-11-07T01:14:42.590Z,100776.22
2018-11-07T01:17:11.024Z,100785.78
2018-11-07T01:19:39.470Z,100785.93
2018-11-07T01:22:07.987Z,100778.72
2018-11-07T01:24:36.435Z,100772.92
2018-11-07T01:27:04.877Z,100773.09
2018-11-07T01:29:33.332Z,100762.48
2018-11-07T01:32:01.757Z,100755.77
2018-11-07T01:34:30.200Z,100748.91
2018-11-07T01:36:58.613Z,100748.97
2018-11-07T01:39:27.033Z,100748.30
2018-11-07T01:41:55.545Z,100740.03
2018-11-07T01:44:23.944Z,100735.67
2018-11-07T01:46:52.370Z,100725.19
2018-11-07T01:49:20.817Z,100720.34
2018-11-07T01:51:49.241Z,100716.39
2018-11-07T01:54:17.700Z,100718.74
2018-11-07T01:56:46.129Z,100710.06
2018-11-07T01:59:14.588Z,100709.36
2018-11-07T02:01:43.014Z,100714.05
2018-11-07T02:04:11.468Z,100724.50
2018-11-07T02:06:39.901Z,100724.78
2018-11-07T02:09:09.485Z,100721.83
2018-11-07T02:11:37.925Z,100720.50
2018-11-07T02:14:06.391Z,100711.89
2018-11-07T02:16:34.792Z,100694.50
2018-11-07T02:19:03.250Z,100700.91
2018-11-07T02:21:31.660Z,100695.14
2018-11-07T02:24:00.101Z,100699.15
2018-11-07T02:26:28.617Z,100702.35
2018-11-07T02:28:57.016Z,100705.70
2018-11-07T02:31:25.434Z,100698.08
2018-11-07T02:33:53.897Z,100697.53
2018-11-07T02:36:22.306Z,100695.31
2018-11-07T02:38:50.780Z,100698.38
2018-11-07T02:41:19.217Z,100684.87
2018-11-07T02:43:47.673Z,100695.64
2018-11-07T02:46:16.101Z,100696.86
2018-11-07T02:48:44.520Z,100690.27
2018-11-07T02:51:12.965Z,100694.81
2018-11-07T02:53:41.417Z,100693.41
2018-11-07T02:56:09.858Z,100695.77
2018-11-07T02:58:38.282Z,100692.18
2018-11-07T03:01:06.833Z,100694.17
2018-11-07T03:03:35.207Z,100691.59
2018-11-07T03:06:03.645Z,100695.88
2018-11-07T03:08:33.174Z,100695.02
2018-11-07T03:11:02.824Z,100699.72
2018-11-07T03:13:31.244Z,100704.77
2018-11-07T03:15:59.692Z,100707.52
2018-11-07T03:18:28.292Z,100697.55
2018-11-07T03:20:56.742Z,100695.78
2018-11-07T03:23:25.177Z,100695.67
2018-11-07T03:25:53.609Z,100690.23
2018-11-07T03:28:22.043Z,100687.75
2018-11-07T03:30:50.487Z,100693.02
2018-11-07T03:33:19.819Z,100688.70
2018-11-07T03:35:48.274Z,100693.03
2018-11-07T03:38:16.739Z,100690.50
2018-11-07T03:40:45.173Z,100689.51
2018-11-07T03:43:13.608Z,100686.57
2018-11-07T03:45:47.316Z,100695.32
2018-11-07T03:48:15.727Z,100688.74
2018-11-07T03:50:44.167Z,100696.16
2018-11-07T03:53:12.679Z,100696.98
2018-11-07T03:55:41.062Z,100703.14
2018-11-07T03:58:09.496Z,100694.95
2018-11-07T04:00:37.957Z,100705.69
2018-11-07T04:03:06.761Z,100713.78
2018-11-07T04:05:35.235Z,100722.55
2018-11-07T04:08:03.678Z,100730.42
2018-11-07T04:10:32.107Z,100727.77
2018-11-07T04:13:00.553Z,100723.19
2018-11-07T04:15:28.972Z,100720.70
2018-11-07T04:17:57.408Z,100725.87
2018-11-07T04:20:25.828Z,100716.38
2018-11-07T04:22:54.260Z,100712.61
2018-11-07T04:25:22.690Z,100711.82
2018-11-07T04:27:51.125Z,100713.09
2018-11-07T04:30:19.553Z,100714.84
2018-11-07T04:32:47.996Z,100725.02
2018-11-07T04:35:16.409Z,100719.57
2018-11-07T04:37:44.851Z,100714.80
2018-11-07T04:40:13.738Z,100721.54
2018-11-07T04:42:42.572Z,100713.41
2018-11-07T04:45:11.030Z,100718.75
2018-11-07T04:47:39.473Z,100714.04
2018-11-07T04:50:09.464Z,100713.37
2018-11-07T04:52:37.921Z,100712.63
2018-11-07T04:55:06.440Z,100719.33
2018-11-07T04:57:34.971Z,100725.74
2018-11-07T05:00:03.506Z,100726.36
2018-11-07T05:02:31.912Z,100728.02
2018-11-07T05:05:00.339Z,100727.38
2018-11-07T05:07:28.798Z,100723.27
2018-11-07T05:09:57.231Z,100726.62
2018-11-07T05:12:25.676Z,100733.88
2018-11-07T05:14:54.081Z,100733.73
2018-11-07T05:17:22.532Z,100732.27
2018-11-07T05:19:51.067Z,100729.70
2018-11-07T05:22:19.451Z,100730.69
2018-11-07T05:24:47.870Z,100738.09
2018-11-07T05:27:16.319Z,100732.93
2018-11-07T05:29:44.785Z,100721.98
2018-11-07T05:32:13.232Z,100719.80
2018-11-07T05:34:41.661Z,100719.33
2018-11-07T05:37:10.128Z,100715.78
2018-11-07T05:39:38.561Z,100719.69
2018-11-07T05:42:07.025Z,100723.22
2018-11-07T05:44:35.441Z,100715.43
2018-11-07T05:47:03.885Z,100727.94
2018-11-07T05:49:32.356Z,100726.19
2018-11-07T05:52:00.766Z,100722.94
2018-11-07T05:54:29.208Z,100733.41
2018-11-07T05:56:57.668Z,100731.69
2018-11-07T05:59:26.109Z,100735.91
2018-11-07T06:01:54.530Z,100735.34
2018-11-07T06:04:22.985Z,100732.70
2018-11-07T06:06:51.449Z,100735.34
2018-11-07T06:09:19.916Z,100736.97
2018-11-07T06:11:48.345Z,100742.20
2018-11-07T06:14:16.805Z,100748.60
2018-11-07T06:16:45.228Z,100750.61
2018-11-07T06:19:13.696Z,100749.09
2018-11-07T06:21:42.118Z,100756.33
2018-11-07T06:24:10.620Z,100754.77
2018-11-07T06:26:39.012Z,100754.42
2018-11-07T06:29:07.454Z,100753.70
2018-11-07T06:31:35.879Z,100748.47
2018-11-07T06:34:04.478Z,100757.09
2018-11-07T06:36:32.950Z,100757.09
2018-11-07T06:39:01.412Z,100762.17
2018-11-07T06:41:29.837Z,100767.24
2018-11-07T06:43:58.312Z,100767.89
2018-11-07T06:46:26.733Z,100769.28
2018-11-07T06:48:55.153Z,100780.62
2018-11-07T06:51:23.592Z,100788.08
2018-11-07T06:53:52.021Z,100788.92
2018-11-07T06:56:20.473Z,100779.58
2018-11-07T06:58:48.897Z,100779.70
2018-11-07T07:01:17.362Z,100775.96
2018-11-07T07:03:45.796Z,100776.83
2018-11-07T07:06:14.229Z,100781.58
2018-11-07T07:08:42.646Z,100788.89
2018-11-07T07:11:11.110Z,100798.19
2018-11-07T07:13:39.517Z,100792.95
2018-11-07T07:16:07.991Z,100802.10
2018-11-07T07:18:36.396Z,100800.88
2018-11-07T07:21:04.889Z,100795.44
2018-11-07T07:23:33.316Z,100793.05
2018-11-07T07:26:01.752Z,100798.28
2018-11-07T07:28:30.180Z,100806.43
2018-11-07T07:30:58.638Z,100802.03
2018-11-07T07:33:27.073Z,100803.72
2018-11-07T07:35:55.521Z,100804.20
2018-11-07T07:38:23.929Z,100801.45
2018-11-07T07:40:52.359Z,100799.09
2018-11-07T07:43:20.787Z,100798.56
2018-11-07T07:45:49.337Z,100797.56
2018-11-07T07:48:17.673Z,100801.28
2018-11-07T07:50:46.158Z,100799.05
2018-11-07T07:53:14.677Z,100797.69
2018-11-07T07:55:43.046Z,100803.13
2018-11-07T07:58:11.520Z,100809.75
2018-11-07T08:00:39.989Z,100802.41
2018-11-07T08:03:08.438Z,100812.11
2018-11-07T08:05:36.866Z,100815.27
2018-11-07T08:08:05.573Z,100825.89
2018-11-07T08:10:33.994Z,100830.73
2018-11-07T08:13:02.476Z,100826.73
2018-11-07T08:15:30.908Z,100819.58
2018-11-07T08:17:59.356Z,100815.63
2018-11-07T08:20:27.781Z,100821.17
2018-11-07T08:22:56.238Z,100825.35
2018-11-07T08:25:24.665Z,100830.58
2018-11-07T08:27:53.105Z,100835.88
2018-11-07T08:30:22.163Z,100841.27
2018-11-07T08:32:50.624Z,100841.57
2018-11-07T08:35:19.053Z,100841.47
2018-11-07T08:37:47.897Z,100843.83
2018-11-07T08:40:17.921Z,100849.53
2018-11-07T08:42:46.437Z,100839.27
2018-11-07T08:45:15.110Z,100832.22
2018-11-07T08:47:44.262Z,100832.10
2018-11-07T08:50:14.469Z,100824.31
2018-11-07T08:52:43.703Z,100834.57
2018-11-07T08:55:13.803Z,100831.02
2018-11-07T08:57:42.256Z,100846.13
2018-11-07T09:00:13.125Z,100846.08
2018-11-07T09:02:42.455Z,100855.59
2018-11-07T09:05:11.397Z,100858.38
2018-11-07T09:07:39.882Z,100860.61
2018-11-07T09:10:10.080Z,100859.52
2018-11-07T09:12:38.517Z,100858.42
2018-11-07T09:15:08.753Z,100846.84
2018-11-07T09:17:37.213Z,100845.08
2018-11-07T09:20:06.643Z,100845.55
2018-11-07T09:22:35.062Z,100837.77
2018-11-07T09:25:03.548Z,100854.35
2018-11-07T09:27:31.977Z,100848.86
2018-11-07T09:30:00.440Z,100851.63
2018-11-07T09:32:28.882Z,100859.47
2018-11-07T09:34:57.320Z,100862.08
2018-11-07T09:37:25.754Z,100863.21
2018-11-07T09:39:54.213Z,100865.36
2018-11-07T09:42:22.646Z,100858.45
2018-11-07T09:44:51.100Z,100859.75
2018-11-07T09:47:19.903Z,100866.38
2018-11-07T09:49:48.469Z,100862.38
2018-11-07T09:52:16.920Z,100865.22
2018-11-07T09:54:45.384Z,100868.43
2018-11-07T09:57:13.941Z,100863.73
2018-11-07T09:59:42.406Z,100871.64
2018-11-07T10:02:10.861Z,100878.27
2018-11-07T10:04:39.294Z,100882.02
2018-11-07T10:07:07.737Z,100870.38
2018-11-07T10:09:36.181Z,100864.68
2018-11-07T10:12:04.919Z,100870.17
2018-11-07T10:14:33.358Z,100866.50
2018-11-07T10:17:01.851Z,100864.16
2018-11-07T10:21:55.661Z,100872.64
2018-11-07T10:24:24.101Z,100876.73
2018-11-07T10:26:52.594Z,100890.49
2018-11-07T10:29:21.253Z,100895.05
2018-11-07T10:31:49.508Z,100897.18
2018-11-07T10:34:18.025Z,100902.28
2018-11-07T10:36:46.460Z,100900.80
2018-11-07T10:39:14.883Z,100903.25
2018-11-07T10:41:43.322Z,100904.42
2018-11-07T10:44:11.748Z,100904.52
2018-11-07T10:46:40.235Z,100904.52
2018-11-07T10:49:08.653Z,100903.51
2018-11-07T10:51:37.175Z,100901.41
2018-11-07T10:54:05.623Z,100907.05
2018-11-07T10:56:34.095Z,100904.30
2018-11-07T10:59:02.756Z,100899.05
2018-11-07T11:01:36.605Z,100898.52
2018-11-07T11:04:05.276Z,100902.53
2018-11-07T11:06:33.755Z,100904.86
2018-11-07T11:09:02.176Z,100909.18
2018-11-07T11:11:30.700Z,100908.30
2018-11-07T11:13:59.106Z,100907.92
2018-11-07T11:16:27.666Z,100906.17
2018-11-07T11:18:56.116Z,100906.92
2018-11-07T11:21:24.574Z,100915.52
2018-11-07T11:23:53.013Z,100918.59
2018-11-07T11:26:21.626Z,100910.88
2018-11-07T11:28:53.587Z,100903.21
2018-11-07T11:31:37.325Z,100910.62
2018-11-07T11:34:06.167Z,100919.78
2018-11-07T11:36:34.388Z,100908.10
2018-11-07T11:39:02.848Z,100902.30
2018-11-07T11:41:31.307Z,100906.70
2018-11-07T11:43:59.773Z,100902.60
2018-11-07T11:46:28.206Z,100909.73
2018-11-07T11:48:56.735Z,100901.37
2018-11-07T11:51:25.127Z,100900.17
2018-11-07T11:53:53.591Z,100899.61
2018-11-07T11:56:22.032Z,100902.90
2018-11-07T11:58:50.530Z,100905.03
2018-11-07T12:01:18.980Z,100901.53
2018-11-07T12:03:47.458Z,100902.77
2018-11-07T12:06:15.873Z,100893.90
2018-11-07T12:08:44.330Z,100888.80
2018-11-07T12:11:12.773Z,100896.06
2018-11-07T12:13:41.351Z,100896.09
2018-11-07T12:16:09.785Z,100891.02
2018-11-07T12:18:38.261Z,100889.23
2018-11-07T12:21:06.782Z,100887.77
2018-11-07T12:23:35.175Z,100896.70
2018-11-07T12:26:03.595Z,100888.48
2018-11-07T12:28:32.054Z,100885.96
2018-11-07T12:31:00.471Z,100887.44
2018-11-07T12:33:28.948Z,100890.71
2018-11-07T12:35:57.387Z,100892.81
2018-11-07T12:38:25.871Z,100895.66
2018-11-07T12:40:54.291Z,100901.78
2018-11-07T12:43:22.710Z,100898.16
2018-11-07T12:45:51.156Z,100901.36
2018-11-07T12:48:19.580Z,100896.49
2018-11-07T12:50:48.027Z,100885.53
2018-11-07T12:53:16.469Z,100883.02
2018-11-07T12:55:44.921Z,100884.77
2018-11-07T12:58:13.568Z,100880.77
2018-11-07T13:00:41.826Z,100887.50
2018-11-07T13:03:10.277Z,100891.06
2018-11-07T13:05:38.727Z,100897.67
2018-11-07T13:08:07.204Z,100895.03
2018-11-07T13:10:44.837Z,100897.66
2018-11-07T13:13:13.497Z,100890.08
2018-11-07T13:15:41.939Z,100889.13
2018-11-07T13:18:10.402Z,100893.56
2018-11-07T13:20:39.010Z,100898.97
2018-11-07T13:23:07.467Z,100897.67
2018-11-07T13:25:35.921Z,100901.69
2018-11-07T13:28:04.384Z,100901.59
2018-11-07T13:30:32.820Z,100898.95
2018-11-07T13:33:01.264Z,100898.40
2018-11-07T13:35:29.700Z,100891.86
2018-11-07T13:37:58.263Z,100893.94
2018-11-07T13:40:26.673Z,100900.68
2018-11-07T13:42:55.081Z,100902.59
2018-11-07T13:45:24.004Z,100905.55
2018-11-07T13:47:53.432Z,100904.72
2018-11-07T13:50:21.893Z,100905.55
2018-11-07T13:52:50.320Z,100911.17
2018-11-07T13:55:18.742Z,100914.45
2018-11-07T13:57:47.367Z,100912.03
2018-11-07T14:00:17.376Z,100915.30
2018-11-07T14:02:46.354Z,100919.34
2018-11-07T14:05:14.830Z,100917.55
2018-11-07T14:07:43.257Z,100919.11
2018-11-07T14:10:17.473Z,100914.89
2018-11-07T14:12:45.955Z,100916.49
2018-11-07T14:15:14.423Z,100913.64
2018-11-07T14:17:43.250Z,100915.89
2018-11-07T14:20:11.748Z,100918.09
2018-11-07T14:22:40.788Z,100924.52
2018-11-07T14:25:10.165Z,100922.02
2018-11-07T14:27:38.687Z,100929.13
2018-11-07T14:30:09.648Z,100934.91
2018-11-07T14:32:39.155Z,100934.71
2018-11-07T14:35:07.637Z,100930.72
2018-11-07T14:37:36.121Z,100930.41
2018-11-07T14:40:04.953Z,100944.09
2018-11-07T14:42:33.400Z,100937.12
2018-11-07T14:45:01.930Z,100941.76
2018-11-07T14:47:30.416Z,100942.92
2018-11-07T14:49:58.845Z,100952.60
2018-11-07T14:52:27.268Z,100955.85
2018-11-07T14:54:55.716Z,100957.41
2018-11-07T14:57:24.132Z,100960.14
2018-11-07T14:59:52.568Z,100953.82
2018-11-07T15:02:21.057Z,100957.69
2018-11-07T15:04:49.491Z,100947.67
2018-11-07T15:07:17.908Z,100955.84
2018-11-07T15:09:46.355Z,100954.42
2018-11-07T15:12:14.793Z,100958.94
2018-11-07T15:14:43.249Z,100960.75
2018-11-07T15:17:11.729Z,100960.34
2018-11-07T15:19:40.166Z,100965.67
2018-11-07T15:22:08.578Z,100967.52
2018-11-07T15:24:37.029Z,100966.89
2018-11-07T15:27:05.729Z,100970.09
2018-11-07T15:29:34.213Z,100975.64
2018-11-07T15:32:02.703Z,100973.83
2018-11-07T15:34:31.129Z,100975.41
2018-11-07T15:36:59.602Z,100974.81
2018-11-07T15:39:28.022Z,100988.30
2018-11-07T15:41:56.490Z,100984.34
2018-11-07T15:44:24.935Z,100984.58
2018-11-07T15:46:53.377Z,100983.60
2018-11-07T15:49:21.848Z,100995.31
2018-11-07T15:51:54.892Z,100993.60
2018-11-07T15:54:23.398Z,100991.88
2018-11-07T15:56:51.944Z,101007.97
2018-11-07T15:59:20.365Z,101008.39
2018-11-07T16:01:48.839Z,101007.13
2018-11-07T16:04:17.271Z,101011.35
2018-11-07T16:06:45.743Z,101020.93
2018-11-07T16:09:14.310Z,101027.94
2018-11-07T16:11:42.778Z,101031.44
2018-11-07T16:14:11.218Z,101025.72
2018-11-07T16:16:39.703Z,101027.23
2018-11-07T16:19:08.150Z,101029.36
2018-11-07T16:21:36.612Z,101031.92
2018-11-07T16:24:06.133Z,101033.97
2018-11-07T16:26:34.452Z,101041.37
2018-11-07T16:29:02.899Z,101053.45
2018-11-07T16:31:31.368Z,101056.81
2018-11-07T16:33:59.803Z,101058.77
2018-11-07T16:36:28.250Z,101060.69
2018-11-07T16:38:56.701Z,101069.60
2018-11-07T16:41:25.271Z,101073.55
2018-11-07T16:43:53.608Z,101072.23
2018-11-07T16:46:22.050Z,101073.94
2018-11-07T16:48:50.508Z,101072.70
2018-11-07T16:51:18.939Z,101072.23
2018-11-07T16:53:47.347Z,101074.58
2018-11-07T16:56:15.800Z,101080.69
2018-11-07T16:58:44.242Z,101075.03
2018-11-07T17:01:12.696Z,101087.48
2018-11-07T17:03:41.135Z,101091.69
2018-11-07T17:06:09.567Z,101088.89
2018-11-07T17:08:38.065Z,101090.98
2018-11-07T17:11:06.702Z,101092.02
2018-11-07T17:13:35.162Z,101090.38
2018-11-07T17:16:03.597Z,101094.78
2018-11-07T17:18:32.037Z,101094.25
2018-11-07T17:21:00.466Z,101095.95
2018-11-07T17:23:29.007Z,101099.66
2018-11-07T17:25:57.449Z,101099.64
2018-11-07T17:28:25.908Z,101096.42
2018-11-07T17:30:54.346Z,101096.11
2018-11-07T17:33:22.787Z,101094.80
2018-11-07T17:35:51.201Z,101102.08
2018-11-07T17:38:19.700Z,101101.23
2018-11-07T17:40:48.110Z,101106.50
2018-11-07T17:43:16.544Z,101104.48
2018-11-07T17:45:44.952Z,101102.80
2018-11-07T17:48:13.522Z,101108.72
2018-11-07T17:50:41.856Z,101105.16
2018-11-07T17:53:10.302Z,101097.36
2018-11-07T17:55:38.704Z,101103.65
2018-11-07T17:58:07.242Z,101102.81
2018-11-07T18:00:35.972Z,101103.33
2018-11-07T18:03:04.459Z,101105.18
2018-11-07T18:05:32.888Z,101104.97
2018-11-07T18:08:01.338Z,101108.19
2018-11-07T18:10:29.759Z,101103.09
2018-11-07T18:12:58.196Z,101107.31
2018-11-07T18:15:26.636Z,101101.87
2018-11-07T18:17:55.086Z,101108.12
2018-11-07T18:20:23.516Z,101113.87
2018-11-07T18:22:51.937Z,101111.16
2018-11-07T18:25:20.392Z,101115.22
2018-11-07T18:27:48.824Z,101110.14
2018-11-07T18:30:17.854Z,101113.69
2018-11-07T18:32:46.991Z,101107.42
2018-11-07T18:35:16.966Z,101106.06
2018-11-07T18:37:45.629Z,101116.70
2018-11-07T18:40:15.478Z,101123.26
2018-11-07T18:42:43.906Z,101131.70
2018-11-07T18:45:12.901Z,101125.30
2018-11-07T18:47:43.646Z,101142.39
2018-11-07T18:50:13.671Z,101133.36
2018-11-07T18:52:42.376Z,101136.66
2018-11-07T18:55:12.419Z,101126.16
2018-11-07T18:57:41.664Z,101135.50
2018-11-07T19:00:12.807Z,101136.50
2018-11-07T19:02:41.785Z,101141.41
2018-11-07T19:05:10.829Z,101139.70
2018-11-07T19:07:39.232Z,101139.27
2018-11-07T19:10:09.861Z,101136.80
2018-11-07T19:12:38.436Z,101148.78
2018-11-07T19:15:08.917Z,101146.75
2018-11-07T19:17:37.348Z,101146.88
2018-11-07T19:20:06.422Z,101156.30
2018-11-07T19:22:34.853Z,101161.52
2018-11-07T19:25:03.286Z,101162.84
2018-11-07T19:27:31.748Z,101165.86
2018-11-07T19:30:00.174Z,101171.02
2018-11-07T19:32:28.606Z,101169.09
2018-11-07T19:34:57.031Z,101172.28
2018-11-07T19:37:25.465Z,101181.94
2018-11-07T19:39:53.899Z,101176.33
2018-11-07T19:42:22.332Z,101180.39
2018-11-07T19:44:50.757Z,101178.16
2018-11-07T19:47:19.207Z,101186.08
2018-11-07T19:49:47.640Z,101178.60
2018-11-07T19:52:16.120Z,101176.20
2018-11-07T19:54:44.588Z,101176.37
2018-11-07T19:57:13.146Z,101177.73
2018-11-07T19:59:41.572Z,101173.98
2018-11-07T20:02:10.069Z,101184.78
2018-11-07T20:04:38.480Z,101189.07
2018-11-07T20:07:06.952Z,101192.84
2018-11-07T20:09:35.389Z,101197.83
2018-11-07T20:12:03.833Z,101198.20
2018-11-07T20:14:32.242Z,101199.28
2018-11-07T20:17:00.696Z,101194.61
2018-11-07T20:19:29.157Z,101201.94
2018-11-07T20:21:57.609Z,101205.40
2018-11-07T20:24:26.028Z,101207.52
2018-11-07T20:26:54.489Z,101208.95
2018-11-07T20:29:22.904Z,101210.47
2018-11-07T20:31:51.364Z,101216.77
2018-11-07T20:34:19.792Z,101215.70
2018-11-07T20:36:48.256Z,101216.97
2018-11-07T20:39:16.684Z,101221.66
2018-11-07T20:41:45.188Z,101215.20
2018-11-07T20:44:13.578Z,101225.53
2018-11-07T20:46:41.984Z,101224.06
2018-11-07T20:49:10.426Z,101226.08
2018-11-07T20:51:38.840Z,101223.81
2018-11-07T20:54:07.332Z,101223.25
2018-11-07T20:56:35.771Z,101220.88
2018-11-07T20:59:04.236Z,101215.27
2018-11-07T21:01:32.672Z,101218.66
2018-11-07T21:04:01.113Z,101221.61
2018-11-07T21:06:29.682Z,101224.73
2018-11-07T21:08:58.122Z,101230.22
2018-11-07T21:11:26.559Z,101233.65
2018-11-07T21:13:55.041Z,101233.70
2018-11-07T21:16:23.479Z,101245.19
2018-11-07T21:18:51.957Z,101251.59
2018-11-07T21:21:20.520Z,101248.00
2018-11-07T21:23:48.959Z,101251.25
2018-11-07T21:26:17.386Z,101257.27
2018-11-07T21:28:45.817Z,101254.37
2018-11-07T21:31:14.358Z,101264.61
2018-11-07T21:33:42.705Z,101257.56
2018-11-07T21:36:11.121Z,101263.98
2018-11-07T21:38:39.926Z,101265.97
2018-11-07T21:41:08.351Z,101259.27
2018-11-07T21:43:36.880Z,101273.06
2018-11-07T21:46:05.426Z,101277.69
2018-11-07T21:48:33.863Z,101277.64
2018-11-07T21:51:02.292Z,101279.49
2018-11-07T21:53:30.751Z,101278.30
2018-11-07T21:55:59.167Z,101276.39
2018-11-07T21:58:27.590Z,101271.57
2018-11-07T22:00:56.065Z,101271.13
2018-11-07T22:03:24.481Z,101275.38
2018-11-07T22:05:52.945Z,101271.37
2018-11-07T22:08:21.354Z,101282.22
2018-11-07T22:10:49.803Z,101281.00
2018-11-07T22:13:18.344Z,101279.49
2018-11-07T22:15:46.713Z,101281.42
2018-11-07T22:18:15.128Z,101279.11
2018-11-07T22:20:43.572Z,101275.39
2018-11-07T22:23:11.984Z,101277.25
2018-11-07T22:25:40.432Z,101271.85
2018-11-07T22:28:08.858Z,101273.04
2018-11-07T22:30:37.310Z,101272.48
2018-11-07T22:33:05.804Z,101273.77
2018-11-07T22:35:34.248Z,101277.91
2018-11-07T22:38:02.668Z,101285.91
2018-11-07T22:40:31.103Z,101279.88
2018-11-07T22:42:59.521Z,101285.99
2018-11-07T22:45:27.953Z,101283.45
2018-11-07T22:47:56.407Z,101287.20
2018-11-07T22:50:24.857Z,101291.40
2018-11-07T22:52:53.281Z,101296.56
2018-11-07T22:55:21.751Z,101295.34
2018-11-07T22:57:50.185Z,101301.23
2018-11-07T23:00:23.946Z,101305.51
2018-11-07T23:02:53.742Z,101299.27
2018-11-07T23:05:22.172Z,101308.41
2018-11-07T23:07:51.179Z,101313.31
2018-11-07T23:10:19.628Z,101313.36
2018-11-07T23:12:48.582Z,101309.94
2018-11-07T23:15:22.201Z,101314.43
2018-11-07T23:17:51.012Z,101315.70
2018-11-07T23:20:19.422Z,101314.87
2018-11-07T23:22:47.874Z,101313.75
2018-11-07T23:25:16.281Z,101328.15
2018-11-07T23:27:45.017Z,101328.08
2018-11-07T23:30:13.447Z,101329.47
2018-11-07T23:32:41.903Z,101334.79
2018-11-07T23:35:10.325Z,101338.27
2018-11-07T23:37:38.757Z,101333.99
2018-11-07T23:40:07.382Z,101339.03
2018-11-07T23:42:35.836Z,101344.66
2018-11-07T23:45:04.419Z,101343.53
2018-11-07T23:47:32.891Z,101341.87
2018-11-07T23:50:01.317Z,101343.38
2018-11-07T23:53:00.548Z,101348.42
2018-11-07T23:55:28.973Z,101349.20
2018-11-07T23:57:57.398Z,101347.84
